createdAt,value
2022-10-24T00:01:22.395Z,13.20
2022-10-24T00:03:49.656Z,13.20
2022-10-24T00:06:18.361Z,13.20
2022-10-24T00:08:46.281Z,13.20
2022-10-24T00:11:22.251Z,13.20
2022-10-24T00:13:51.132Z,13.20
2022-10-24T00:16:18.717Z,13.20
2022-10-24T00:18:46.874Z,13.20
2022-10-24T00:21:14.804Z,13.20
2022-10-24T00:23:41.901Z,13.20
2022-10-24T00:26:10.320Z,13.20
2022-10-24T00:28:38.658Z,13.20
2022-10-24T00:31:08.092Z,13.20
2022-10-24T00:33:35.630Z,13.20
2022-10-24T00:36:03.184Z,13.20
2022-10-24T00:38:30.234Z,13.20
2022-10-24T00:40:57.381Z,13.20
2022-10-24T00:43:26.837Z,13.30
2022-10-24T00:46:02.566Z,13.20
2022-10-24T00:48:49.994Z,13.20
2022-10-24T00:51:26.850Z,13.20
2022-10-24T00:54:04.393Z,13.20
2022-10-24T00:56:59.668Z,13.20
2022-10-24T00:59:28.044Z,13.20
2022-10-24T01:01:55.338Z,13.20
2022-10-24T01:04:22.471Z,13.20
2022-10-24T01:07:23.277Z,13.20
2022-10-24T01:10:31.200Z,13.20
2022-10-24T01:13:36.380Z,13.20
2022-10-24T01:16:20.898Z,13.20
2022-10-24T01:18:58.589Z,13.20
2022-10-24T01:21:48.363Z,13.10
2022-10-24T01:24:58.246Z,13.20
2022-10-24T01:27:54.639Z,13.20
2022-10-24T01:30:21.958Z,13.10
2022-10-24T01:33:11.097Z,13.10
2022-10-24T01:36:11.190Z,13.20
2022-10-24T01:38:56.868Z,13.20
2022-10-24T01:41:28.525Z,13.20
2022-10-24T01:44:06.064Z,13.20
2022-10-24T01:46:40.694Z,13.20
2022-10-24T01:49:19.645Z,13.20
2022-10-24T01:51:52.012Z,13.20
2022-10-24T01:54:20.036Z,13.20
2022-10-24T01:56:47.314Z,13.20
2022-10-24T01:59:28.149Z,13.20
2022-10-24T02:02:29.298Z,13.20
2022-10-24T02:05:29.804Z,13.20
2022-10-24T02:08:02.751Z,13.20
2022-10-24T02:10:37.588Z,13.20
2022-10-24T02:13:11.203Z,13.20
2022-10-24T02:15:47.714Z,13.30
2022-10-24T02:18:15.473Z,13.30
2022-10-24T02:21:17.425Z,13.30
2022-10-24T02:24:03.158Z,13.30
2022-10-24T02:26:39.828Z,13.30
2022-10-24T02:29:24.824Z,13.40
2022-10-24T02:31:56.682Z,13.40
2022-10-24T02:34:28.166Z,13.50
2022-10-24T02:36:59.381Z,13.50
2022-10-24T02:39:28.111Z,13.50
2022-10-24T02:41:57.582Z,13.50
2022-10-24T02:44:27.073Z,13.50
2022-10-24T02:46:57.244Z,13.60
2022-10-24T02:49:24.936Z,13.60
2022-10-24T02:51:53.379Z,13.60
2022-10-24T02:54:20.534Z,13.60
2022-10-24T02:56:58.075Z,13.60
2022-10-24T02:59:25.163Z,13.60
2022-10-24T03:01:52.341Z,13.70
2022-10-24T03:04:19.512Z,13.70
2022-10-24T03:06:46.674Z,13.70
2022-10-24T03:09:13.837Z,13.70
2022-10-24T03:11:41.363Z,13.70
2022-10-24T03:14:08.453Z,13.70
2022-10-24T03:16:35.515Z,13.70
2022-10-24T03:19:02.563Z,13.70
2022-10-24T03:21:29.646Z,13.70
2022-10-24T03:23:56.821Z,13.70
2022-10-24T03:26:24.164Z,13.70
2022-10-24T03:28:51.254Z,13.80
2022-10-24T03:31:18.378Z,13.80
2022-10-24T03:33:45.489Z,13.70
2022-10-24T03:36:12.594Z,13.70
2022-10-24T03:38:39.710Z,13.60
2022-10-24T03:41:06.869Z,13.60
2022-10-24T03:43:34.035Z,13.60
2022-10-24T03:46:01.189Z,13.50
2022-10-24T03:48:28.502Z,13.50
2022-10-24T03:50:55.627Z,13.50
2022-10-24T03:53:22.723Z,13.40
2022-10-24T03:55:49.871Z,13.40
2022-10-24T03:58:17.181Z,13.40
2022-10-24T04:00:44.320Z,13.40
2022-10-24T04:03:11.374Z,13.30
2022-10-24T04:08:06.771Z,13.30
2022-10-24T04:10:33.806Z,13.30
2022-10-24T04:13:00.988Z,13.20
2022-10-24T04:15:28.069Z,13.20
2022-10-24T04:17:55.203Z,13.20
2022-10-24T04:20:23.288Z,13.20
2022-10-24T04:22:50.646Z,13.10
2022-10-24T04:25:18.635Z,13.10
2022-10-24T04:27:46.437Z,13.10
2022-10-24T04:30:16.551Z,13.00
2022-10-24T04:32:45.076Z,13.00
2022-10-24T04:35:13.943Z,13.00
2022-10-24T04:37:41.122Z,12.90
2022-10-24T04:40:09.241Z,12.90
2022-10-24T04:42:36.297Z,12.90
2022-10-24T04:45:04.115Z,12.80
2022-10-24T04:47:32.177Z,12.80
2022-10-24T04:49:59.326Z,12.70
2022-10-24T04:52:26.580Z,12.70
2022-10-24T04:54:53.832Z,12.60
2022-10-24T04:57:20.852Z,12.60
2022-10-24T04:59:47.865Z,12.60
2022-10-24T05:02:14.973Z,12.50
2022-10-24T05:04:42.020Z,12.50
2022-10-24T05:07:09.095Z,12.40
2022-10-24T05:09:36.168Z,12.40
2022-10-24T05:12:03.470Z,12.40
2022-10-24T05:14:30.682Z,12.40
2022-10-24T05:16:57.757Z,12.40
2022-10-24T05:19:24.812Z,12.40
2022-10-24T05:21:51.845Z,12.30
2022-10-24T05:24:18.882Z,12.30
2022-10-24T05:26:45.969Z,12.30
2022-10-24T05:29:13.030Z,12.30
2022-10-24T05:31:40.354Z,12.30
2022-10-24T05:34:07.428Z,12.20
2022-10-24T05:36:34.598Z,12.20
2022-10-24T05:39:01.671Z,12.20
2022-10-24T05:41:28.808Z,12.10
2022-10-24T05:43:55.921Z,12.10
2022-10-24T05:46:23.111Z,12.10
2022-10-24T05:48:50.338Z,12.10
2022-10-24T05:51:17.371Z,12.00
2022-10-24T05:53:44.638Z,12.00
2022-10-24T05:56:11.753Z,12.00
2022-10-24T05:58:38.800Z,12.00
2022-10-24T06:01:06.103Z,12.00
2022-10-24T06:03:33.247Z,12.00
2022-10-24T06:06:06.174Z,11.90
2022-10-24T06:08:37.903Z,12.00
2022-10-24T06:11:09.245Z,12.00
2022-10-24T06:13:36.632Z,12.00
2022-10-24T06:16:06.834Z,12.00
2022-10-24T06:18:33.892Z,12.00
2022-10-24T06:21:02.794Z,12.10
2022-10-24T06:23:29.979Z,12.00
2022-10-24T06:25:57.711Z,12.10
2022-10-24T06:28:24.958Z,12.20
2022-10-24T06:30:54.515Z,12.10
2022-10-24T06:33:21.633Z,12.20
2022-10-24T06:35:49.118Z,12.20
2022-10-24T06:38:16.253Z,12.30
2022-10-24T06:40:43.330Z,12.30
2022-10-24T06:43:10.402Z,12.30
2022-10-24T06:45:40.586Z,12.30
2022-10-24T06:48:07.803Z,12.40
2022-10-24T06:50:34.888Z,12.40
2022-10-24T06:53:02.012Z,12.50
2022-10-24T06:55:29.085Z,12.50
2022-10-24T06:57:56.148Z,12.60
2022-10-24T07:00:23.244Z,12.60
2022-10-24T07:02:50.471Z,12.70
2022-10-24T07:05:17.706Z,12.80
2022-10-24T07:07:45.264Z,12.80
2022-10-24T07:10:14.973Z,12.90
2022-10-24T07:12:43.546Z,12.90
2022-10-24T07:15:11.603Z,13.00
2022-10-24T07:17:41.544Z,13.00
2022-10-24T07:20:10.576Z,13.00
2022-10-24T07:22:37.915Z,13.00
2022-10-24T07:25:06.797Z,13.10
2022-10-24T07:27:34.668Z,13.10
2022-10-24T07:30:05.486Z,13.10
2022-10-24T07:32:33.903Z,13.20
2022-10-24T07:35:01.126Z,13.20
2022-10-24T07:37:28.203Z,13.20
2022-10-24T07:39:55.255Z,13.20
2022-10-24T07:42:22.346Z,13.30
2022-10-24T07:44:49.450Z,13.30
2022-10-24T07:47:16.580Z,13.30
2022-10-24T07:49:43.837Z,13.40
2022-10-24T07:52:10.939Z,13.40
2022-10-24T07:54:37.990Z,13.40
2022-10-24T07:57:05.491Z,13.50
2022-10-24T07:59:47.779Z,13.50
2022-10-24T08:02:16.297Z,13.60
2022-10-24T08:04:44.546Z,13.60
2022-10-24T08:07:15.869Z,13.70
2022-10-24T08:09:47.006Z,13.70
2022-10-24T08:12:14.589Z,13.80
2022-10-24T08:14:42.846Z,13.80
2022-10-24T08:17:10.766Z,13.90
2022-10-24T08:19:43.758Z,13.90
2022-10-24T08:22:12.064Z,14.00
2022-10-24T08:24:39.194Z,13.90
2022-10-24T08:27:06.286Z,14.00
2022-10-24T08:29:33.342Z,14.00
2022-10-24T08:32:00.686Z,14.10
2022-10-24T08:34:28.087Z,14.10
2022-10-24T08:36:55.164Z,14.20
2022-10-24T08:39:22.210Z,14.30
2022-10-24T08:41:57.901Z,14.30
2022-10-24T08:44:35.887Z,14.40
2022-10-24T08:47:49.645Z,14.50
2022-10-24T08:50:28.256Z,14.50
2022-10-24T08:53:06.981Z,14.60
2022-10-24T08:55:53.582Z,14.60
2022-10-24T08:58:38.105Z,14.70
2022-10-24T09:01:51.273Z,14.70
2022-10-24T09:04:23.324Z,14.80
2022-10-24T09:06:53.913Z,14.80
2022-10-24T09:09:49.818Z,14.80
2022-10-24T09:12:20.746Z,14.80
2022-10-24T09:14:59.927Z,14.80
2022-10-24T09:17:35.583Z,14.80
2022-10-24T09:20:40.971Z,14.80
2022-10-24T09:23:08.147Z,14.90
2022-10-24T09:25:38.304Z,14.90
2022-10-24T09:28:06.509Z,14.90
2022-10-24T09:30:36.756Z,14.90
2022-10-24T09:33:22.008Z,15.00
2022-10-24T09:35:51.227Z,15.10
2022-10-24T09:38:38.703Z,15.10
2022-10-24T09:41:17.201Z,15.20
2022-10-24T09:43:44.158Z,15.20
2022-10-24T09:46:18.924Z,15.20
2022-10-24T09:48:51.766Z,15.30
2022-10-24T09:51:42.505Z,15.30
2022-10-24T09:54:18.751Z,15.30
2022-10-24T09:57:12.232Z,15.30
2022-10-24T09:59:47.296Z,15.30
2022-10-24T10:02:14.355Z,15.30
2022-10-24T10:04:42.056Z,15.40
2022-10-24T10:07:15.303Z,15.40
2022-10-24T10:09:57.032Z,15.40
2022-10-24T10:12:41.046Z,15.50
2022-10-24T10:15:31.381Z,15.50
2022-10-24T10:18:03.602Z,15.60
2022-10-24T10:20:37.465Z,15.50
2022-10-24T10:23:47.335Z,15.60
2022-10-24T10:26:41.210Z,15.60
2022-10-24T10:29:17.139Z,15.70
2022-10-24T10:32:07.885Z,15.70
2022-10-24T10:34:45.875Z,15.70
2022-10-24T10:37:28.697Z,15.80
2022-10-24T10:40:37.770Z,15.80
2022-10-24T10:43:20.819Z,15.90
2022-10-24T10:45:51.954Z,16.00
2022-10-24T10:48:39.764Z,16.10
2022-10-24T10:51:41.395Z,16.20
2022-10-24T10:54:25.241Z,16.30
2022-10-24T10:57:02.982Z,16.40
2022-10-24T10:59:51.297Z,16.40
2022-10-24T11:02:27.450Z,16.40
2022-10-24T11:05:37.607Z,16.50
2022-10-24T11:08:27.600Z,16.50
2022-10-24T11:11:07.602Z,16.50
2022-10-24T11:13:42.869Z,16.50
2022-10-24T11:16:21.698Z,16.60
2022-10-24T11:18:52.836Z,16.60
2022-10-24T11:21:25.491Z,16.60
2022-10-24T11:24:13.606Z,16.70
2022-10-24T11:26:50.678Z,16.80
2022-10-24T11:29:40.466Z,16.80
2022-10-24T11:32:36.126Z,16.90
2022-10-24T11:35:14.829Z,17.10
2022-10-24T11:37:46.640Z,17.30
2022-10-24T11:40:22.175Z,17.50
2022-10-24T11:43:02.429Z,17.60
2022-10-24T11:46:07.302Z,17.80
2022-10-24T11:49:07.956Z,17.90
2022-10-24T11:51:43.121Z,17.90
2022-10-24T11:54:23.049Z,18.00
2022-10-24T11:57:08.615Z,18.10
2022-10-24T11:59:38.518Z,18.20
2022-10-24T12:02:25.928Z,18.30
2022-10-24T12:05:41.995Z,18.40
2022-10-24T12:08:50.323Z,18.40
2022-10-24T12:11:31.387Z,18.60
2022-10-24T12:14:07.334Z,18.60
2022-10-24T12:17:13.369Z,18.70
2022-10-24T12:19:42.112Z,18.80
2022-10-24T12:25:20.648Z,18.90
2022-10-24T12:28:02.426Z,18.90
2022-10-24T12:30:34.726Z,18.80
2022-10-24T12:33:26.527Z,18.80
2022-10-24T12:35:57.479Z,18.80
2022-10-24T12:38:27.600Z,18.90
2022-10-24T12:41:06.592Z,18.80
2022-10-24T12:43:39.105Z,18.90
2022-10-24T12:46:27.284Z,18.90
2022-10-24T12:48:57.031Z,18.90
2022-10-24T12:51:33.154Z,18.90
2022-10-24T12:54:10.982Z,18.90
2022-10-24T12:56:50.515Z,19.00
2022-10-24T12:59:35.185Z,19.00
2022-10-24T13:02:32.897Z,19.10
2022-10-24T13:05:08.997Z,19.20
2022-10-24T13:08:10.016Z,19.30
2022-10-24T13:11:07.849Z,19.40
2022-10-24T13:13:59.520Z,19.50
2022-10-24T13:16:58.915Z,19.60
2022-10-24T13:19:27.566Z,19.60
2022-10-24T13:22:00.040Z,19.60
2022-10-24T13:24:34.952Z,19.70
2022-10-24T13:27:12.522Z,19.70
2022-10-24T13:29:41.436Z,19.70
2022-10-24T13:32:08.414Z,19.70
2022-10-24T13:34:50.723Z,19.80
2022-10-24T13:37:44.642Z,19.90
2022-10-24T13:40:30.497Z,20.00
2022-10-24T13:43:25.798Z,20.00
2022-10-24T13:45:52.765Z,19.90
2022-10-24T13:48:28.305Z,19.80
2022-10-24T13:51:32.363Z,19.70
2022-10-24T13:54:28.790Z,19.60
2022-10-24T13:56:58.457Z,19.50
2022-10-24T13:59:37.868Z,19.50
2022-10-24T14:02:19.754Z,19.50
2022-10-24T14:04:48.892Z,19.50
2022-10-24T14:07:30.409Z,19.70
2022-10-24T14:10:06.894Z,19.80
2022-10-24T14:12:36.371Z,20.00
2022-10-24T14:15:06.233Z,20.20
2022-10-24T14:17:35.852Z,20.30
2022-10-24T14:20:21.358Z,20.30
2022-10-24T14:22:48.722Z,20.30
2022-10-24T14:25:37.924Z,20.30
2022-10-24T14:28:17.474Z,20.30
2022-10-24T14:31:07.458Z,20.20
2022-10-24T14:33:49.374Z,20.00
2022-10-24T14:36:22.031Z,19.90
2022-10-24T14:38:51.637Z,19.90
2022-10-24T14:41:38.463Z,19.70
2022-10-24T14:44:07.425Z,19.60
2022-10-24T14:46:38.794Z,19.50
2022-10-24T14:49:26.939Z,19.40
2022-10-24T14:52:07.472Z,19.30
2022-10-24T14:54:35.869Z,19.20
2022-10-24T14:57:13.674Z,19.20
2022-10-24T14:59:45.832Z,19.20
2022-10-24T15:02:31.409Z,19.20
2022-10-24T15:05:20.511Z,19.10
2022-10-24T15:08:16.724Z,19.10
2022-10-24T15:10:42.528Z,19.00
2022-10-24T15:13:21.186Z,18.90
2022-10-24T15:15:55.154Z,18.80
2022-10-24T15:18:31.389Z,18.80
2022-10-24T15:21:13.035Z,18.70
2022-10-24T15:23:58.545Z,18.60
2022-10-24T15:26:44.649Z,18.50
2022-10-24T15:29:14.586Z,18.40
2022-10-24T15:31:46.272Z,18.30
2022-10-24T15:34:20.822Z,18.20
2022-10-24T15:36:51.581Z,18.10
2022-10-24T15:39:24.573Z,18.00
2022-10-24T15:41:52.400Z,18.00
2022-10-24T15:44:22.679Z,17.90
2022-10-24T15:46:50.031Z,17.90
2022-10-24T15:49:17.607Z,17.80
2022-10-24T15:51:50.156Z,17.80
2022-10-24T15:54:21.629Z,17.70
2022-10-24T15:56:50.343Z,17.60
2022-10-24T15:59:19.986Z,17.60
2022-10-24T16:02:01.313Z,17.50
2022-10-24T16:04:29.190Z,17.50
2022-10-24T16:06:56.744Z,17.40
2022-10-24T16:09:31.352Z,17.40
2022-10-24T16:11:59.148Z,17.40
2022-10-24T16:14:26.846Z,17.30
2022-10-24T16:16:55.361Z,17.30
2022-10-24T16:19:23.946Z,17.30
2022-10-24T16:21:53.634Z,17.20
2022-10-24T16:24:21.201Z,17.20
2022-10-24T16:26:48.375Z,17.10
2022-10-24T16:29:15.542Z,17.10
2022-10-24T16:31:44.293Z,17.10
2022-10-24T16:34:11.681Z,17.10
2022-10-24T16:36:41.407Z,17.10
2022-10-24T16:39:09.259Z,17.00
2022-10-24T16:41:36.519Z,17.00
2022-10-24T16:44:03.981Z,17.00
2022-10-24T16:46:31.603Z,17.00
2022-10-24T16:48:59.075Z,16.90
2022-10-24T16:51:34.879Z,16.90
2022-10-24T16:54:03.723Z,16.90
2022-10-24T16:56:31.725Z,16.90
2022-10-24T16:58:59.359Z,16.90
2022-10-24T17:01:28.294Z,16.80
2022-10-24T17:03:56.459Z,16.80
2022-10-24T17:06:24.507Z,16.80
2022-10-24T17:08:53.797Z,16.70
2022-10-24T17:11:43.756Z,16.70
2022-10-24T17:14:10.096Z,16.70
2022-10-24T17:16:37.843Z,16.70
2022-10-24T17:19:15.812Z,16.70
2022-10-24T17:21:49.138Z,16.70
2022-10-24T17:24:26.111Z,16.60
2022-10-24T17:26:55.243Z,16.70
2022-10-24T17:29:35.004Z,16.60
2022-10-24T17:32:03.022Z,16.60
2022-10-24T17:34:30.817Z,16.50
2022-10-24T17:37:54.313Z,16.50
2022-10-24T17:40:28.586Z,16.50
2022-10-24T17:42:59.319Z,16.50
2022-10-24T17:45:27.358Z,16.50
2022-10-24T17:47:56.427Z,16.50
2022-10-24T17:50:24.777Z,16.50
2022-10-24T17:52:52.281Z,16.40
2022-10-24T17:58:12.843Z,16.40
2022-10-24T18:00:45.810Z,16.40
2022-10-24T18:03:15.532Z,16.40
2022-10-24T18:05:43.719Z,16.40
2022-10-24T18:08:13.562Z,16.30
2022-10-24T18:10:42.370Z,16.30
2022-10-24T18:13:13.921Z,16.30
2022-10-24T18:15:42.040Z,16.30
2022-10-24T18:18:11.321Z,16.20
2022-10-24T18:20:40.337Z,16.20
2022-10-24T18:23:08.330Z,16.10
2022-10-24T18:25:38.981Z,16.10
2022-10-24T18:28:06.773Z,16.10
2022-10-24T18:30:36.701Z,16.00
2022-10-24T18:33:05.346Z,15.90
2022-10-24T18:35:35.139Z,15.90
2022-10-24T18:38:03.436Z,15.80
2022-10-24T18:40:33.964Z,15.80
2022-10-24T18:43:12.660Z,15.70
2022-10-24T18:45:42.519Z,15.60
2022-10-24T18:48:10.900Z,15.60
2022-10-24T18:50:39.331Z,15.60
2022-10-24T18:53:27.760Z,15.60
2022-10-24T18:55:56.064Z,15.50
2022-10-24T18:58:24.165Z,15.50
2022-10-24T19:00:58.164Z,15.40
2022-10-24T19:03:36.235Z,15.50
2022-10-24T19:06:28.199Z,15.40
2022-10-24T19:08:56.113Z,15.40
2022-10-24T19:11:25.414Z,15.40
2022-10-24T19:13:58.896Z,15.40
2022-10-24T19:16:30.047Z,15.40
2022-10-24T19:19:02.374Z,15.40
2022-10-24T19:21:30.975Z,15.40
2022-10-24T19:24:00.295Z,15.40
2022-10-24T19:26:29.426Z,15.30
2022-10-24T19:29:00.014Z,15.30
2022-10-24T19:31:30.957Z,15.30
2022-10-24T19:33:58.823Z,15.30
2022-10-24T19:38:59.936Z,15.30
2022-10-24T19:41:27.885Z,15.30
2022-10-24T19:43:56.339Z,15.20
2022-10-24T19:46:23.739Z,15.20
2022-10-24T19:48:53.628Z,15.20
2022-10-24T19:51:23.707Z,15.20
2022-10-24T19:53:52.978Z,15.10
2022-10-24T19:56:26.494Z,15.10
2022-10-24T19:58:57.195Z,15.10
2022-10-24T20:01:30.323Z,15.10
2022-10-24T20:04:00.720Z,15.10
2022-10-24T20:06:28.705Z,15.10
2022-10-24T20:08:56.828Z,15.00
2022-10-24T20:11:24.793Z,15.00
2022-10-24T20:13:52.802Z,15.00
2022-10-24T20:16:20.842Z,15.00
2022-10-24T20:18:48.856Z,15.00
2022-10-24T20:21:19.384Z,14.90
2022-10-24T20:23:48.868Z,15.00
2022-10-24T20:26:22.497Z,15.00
2022-10-24T20:28:52.660Z,15.00
2022-10-24T20:31:32.916Z,14.90
2022-10-24T20:34:08.444Z,14.90
2022-10-24T20:36:42.965Z,14.90
2022-10-24T20:39:11.788Z,14.90
2022-10-24T20:41:40.721Z,14.90
2022-10-24T20:44:08.624Z,14.80
2022-10-24T20:46:42.929Z,14.80
2022-10-24T20:49:10.544Z,14.80
2022-10-24T20:51:40.754Z,14.80
2022-10-24T20:54:09.935Z,14.80
2022-10-24T20:56:41.980Z,14.80
2022-10-24T20:59:12.143Z,14.80
2022-10-24T21:01:39.625Z,14.70
2022-10-24T21:04:06.884Z,14.70
2022-10-24T21:06:36.262Z,14.70
2022-10-24T21:09:06.776Z,14.70
2022-10-24T21:11:45.061Z,14.70
2022-10-24T21:14:18.065Z,14.60
2022-10-24T21:16:45.244Z,14.60
2022-10-24T21:19:12.364Z,14.60
2022-10-24T21:21:40.392Z,14.60
2022-10-24T21:24:08.314Z,14.60
2022-10-24T21:26:38.497Z,14.50
2022-10-24T21:29:31.639Z,14.50
2022-10-24T21:31:54.249Z,14.50
2022-10-24T21:34:21.736Z,14.40
2022-10-24T21:36:48.840Z,14.40
2022-10-24T21:39:17.333Z,14.30
2022-10-24T21:41:45.024Z,14.30
2022-10-24T21:44:12.748Z,14.30
2022-10-24T21:46:40.083Z,14.20
2022-10-24T21:49:07.232Z,14.20
2022-10-24T21:51:36.971Z,14.10
2022-10-24T21:54:17.456Z,14.10
2022-10-24T21:56:44.683Z,14.00
2022-10-24T21:59:15.564Z,14.00
2022-10-24T22:01:45.930Z,14.00
2022-10-24T22:04:14.341Z,14.00
2022-10-24T22:06:41.824Z,13.90
2022-10-24T22:09:13.673Z,13.90
2022-10-24T22:11:41.811Z,13.90
2022-10-24T22:14:11.705Z,13.90
2022-10-24T22:16:39.168Z,13.90
2022-10-24T22:19:07.027Z,13.80
2022-10-24T22:21:41.315Z,13.80
2022-10-24T22:24:15.602Z,13.80
2022-10-24T22:26:43.134Z,13.80
2022-10-24T22:29:14.038Z,13.70
2022-10-24T22:31:41.559Z,13.70
2022-10-24T22:34:14.845Z,13.70
2022-10-24T22:36:52.600Z,13.70
2022-10-24T22:39:23.507Z,13.60
2022-10-24T22:41:51.436Z,13.60
2022-10-24T22:44:20.921Z,13.60
2022-10-24T22:47:34.098Z,13.60
2022-10-24T22:50:14.197Z,13.60
2022-10-24T22:52:41.718Z,13.50
2022-10-24T22:55:42.173Z,13.50
2022-10-24T22:58:09.563Z,13.40
2022-10-24T23:00:37.049Z,13.40
2022-10-24T23:03:38.033Z,13.30
2022-10-24T23:06:18.664Z,13.30
2022-10-24T23:08:46.102Z,13.30
2022-10-24T23:11:14.518Z,13.20
2022-10-24T23:13:42.834Z,13.30
2022-10-24T23:16:44.120Z,13.20
2022-10-24T23:19:33.448Z,13.20
2022-10-24T23:22:15.080Z,13.20
2022-10-24T23:24:42.748Z,13.20
2022-10-24T23:27:12.771Z,13.30
2022-10-24T23:29:45.957Z,13.20
2022-10-24T23:32:34.789Z,13.20
2022-10-24T23:35:02.252Z,13.20
2022-10-24T23:37:46.381Z,13.20
2022-10-24T23:40:36.067Z,13.20
2022-10-24T23:43:04.605Z,13.20
2022-10-24T23:45:50.279Z,13.20
2022-10-24T23:48:35.499Z,13.10
2022-10-24T23:51:14.674Z,13.10
2022-10-24T23:54:02.373Z,13.10
2022-10-24T23:56:30.212Z,13.10
2022-10-24T23:58:57.420Z,13.10
